sensor_id;sensor_type;location;lat;lon;timestamp;P1;durP1;ratioP1;P2;durP2;ratioP2
45382;SDS011;42455;51.660;5.824;2023-03-01T00:00:37;8.0;;;7.0;;
45382;SDS011;42455;51.660;5.824;2023-03-01T00:05:44;8.0;;;7.0;;
45382;SDS011;42455;51.660;5.824;2023-03-01T00:10:50;8.0;;;7.0;;
45382;SDS011;42455;51.660;5.824;2023-03-01T00:15:56;7.0;;;7.0;;
45382;SDS011;42455;51.660;5.824;2023-03-01T00:21:02;8.0;;;7.0;;
45382;SDS011;42455;51.660;5.824;2023-03-01T00:26:10;8.0;;;7.0;;
45382;SDS011;42455;51.660;5.824;2023-03-01T00:31:16;8.0;;;7.0;;
45382;SDS011;42455;51.660;5.824;2023-03-01T00:36:21;8.5;;;7.0;;
45382;SDS011;42455;51.660;5.824;2023-03-01T00:41:27;7.0;;;7.0;;
45382;SDS011;42455;51.660;5.824;2023-03-01T00:46:33;8.0;;;7.0;;
45382;SDS011;42455;51.660;5.824;2023-03-01T00:51:39;7.0;;;6.5;;
45382;SDS011;42455;51.660;5.824;2023-03-01T00:56:45;8.0;;;7.0;;
45382;SDS011;42455;51.660;5.824;2023-03-01T01:01:52;7.0;;;7.0;;
45382;SDS011;42455;51.660;5.824;2023-03-01T01:06:58;8.0;;;7.0;;
45382;SDS011;42455;51.660;5.824;2023-03-01T01:12:04;8.0;;;7.0;;
45382;SDS011;42455;51.660;5.824;2023-03-01T01:17:10;8.0;;;7.0;;
45382;SDS011;42455;51.660;5.824;2023-03-01T01:22:16;8.0;;;7.0;;
45382;SDS011;42455;51.660;5.824;2023-03-01T01:27:23;8.0;;;7.0;;
45382;SDS011;42455;51.660;5.824;2023-03-01T01:32:29;7.0;;;6.0;;
45382;SDS011;42455;51.660;5.824;2023-03-01T01:37:35;8.0;;;7.0;;
45382;SDS011;42455;51.660;5.824;2023-03-01T01:42:41;8.0;;;7.0;;
45382;SDS011;42455;51.660;5.824;2023-03-01T01:47:47;7.0;;;7.0;;
45382;SDS011;42455;51.660;5.824;2023-03-01T01:52:53;8.0;;;7.0;;
45382;SDS011;42455;51.660;5.824;2023-03-01T01:58:04;8.0;;;7.0;;
45382;SDS011;42455;51.660;5.824;2023-03-01T02:03:08;7.5;;;7.0;;
45382;SDS011;42455;51.660;5.824;2023-03-01T02:08:11;9.0;;;7.0;;
45382;SDS011;42455;51.660;5.824;2023-03-01T02:13:17;8.0;;;7.0;;
45382;SDS011;42455;51.660;5.824;2023-03-01T02:18:24;8.0;;;7.0;;
45382;SDS011;42455;51.660;5.824;2023-03-01T02:23:29;8.0;;;7.5;;
45382;SDS011;42455;51.660;5.824;2023-03-01T02:28:35;8.0;;;7.0;;
45382;SDS011;42455;51.660;5.824;2023-03-01T02:33:45;8.0;;;7.0;;
45382;SDS011;42455;51.660;5.824;2023-03-01T02:38:48;9.0;;;7.0;;
45382;SDS011;42455;51.660;5.824;2023-03-01T02:43:54;9.0;;;7.0;;
45382;SDS011;42455;51.660;5.824;2023-03-01T02:49:00;8.0;;;7.0;;
45382;SDS011;42455;51.660;5.824;2023-03-01T02:54:20;8.0;;;7.0;;
45382;SDS011;42455;51.660;5.824;2023-03-01T02:59:13;9.0;;;7.0;;
45382;SDS011;42455;51.660;5.824;2023-03-01T03:04:19;8.0;;;7.0;;
45382;SDS011;42455;51.660;5.824;2023-03-01T03:09:26;8.0;;;7.0;;
45382;SDS011;42455;51.660;5.824;2023-03-01T03:14:31;8.0;;;7.0;;
45382;SDS011;42455;51.660;5.824;2023-03-01T03:19:37;9.0;;;7.0;;
45382;SDS011;42455;51.660;5.824;2023-03-01T03:24:43;10.0;;;7.5;;
45382;SDS011;42455;51.660;5.824;2023-03-01T03:29:50;9.0;;;8.0;;
45382;SDS011;42455;51.660;5.824;2023-03-01T03:34:56;9.0;;;8.0;;
45382;SDS011;42455;51.660;5.824;2023-03-01T03:40:03;9.0;;;8.0;;
45382;SDS011;42455;51.660;5.824;2023-03-01T03:45:07;9.0;;;8.0;;
45382;SDS011;42455;51.660;5.824;2023-03-01T03:50:14;9.0;;;8.0;;
45382;SDS011;42455;51.660;5.824;2023-03-01T03:55:19;9.0;;;8.0;;
45382;SDS011;42455;51.660;5.824;2023-03-01T04:00:25;9.0;;;8.0;;
45382;SDS011;42455;51.660;5.824;2023-03-01T04:05:31;9.0;;;8.0;;
45382;SDS011;42455;51.660;5.824;2023-03-01T04:10:38;9.0;;;8.0;;
45382;SDS011;42455;51.660;5.824;2023-03-01T04:15:44;10.0;;;8.0;;
45382;SDS011;42455;51.660;5.824;2023-03-01T04:20:50;9.0;;;8.0;;
45382;SDS011;42455;51.660;5.824;2023-03-01T04:25:57;9.0;;;8.0;;
45382;SDS011;42455;51.660;5.824;2023-03-01T04:31:05;10.0;;;9.0;;
45382;SDS011;42455;51.660;5.824;2023-03-01T04:36:10;10.0;;;9.0;;
45382;SDS011;42455;51.660;5.824;2023-03-01T04:41:15;11.0;;;9.0;;
45382;SDS011;42455;51.660;5.824;2023-03-01T04:46:21;10.0;;;9.0;;
45382;SDS011;42455;51.660;5.824;2023-03-01T04:51:27;10.0;;;8.5;;
45382;SDS011;42455;51.660;5.824;2023-03-01T04:56:33;10.0;;;9.0;;
45382;SDS011;42455;51.660;5.824;2023-03-01T05:01:40;10.0;;;9.0;;
45382;SDS011;42455;51.660;5.824;2023-03-01T05:06:46;11.0;;;9.0;;
45382;SDS011;42455;51.660;5.824;2023-03-01T05:11:52;11.0;;;9.0;;
45382;SDS011;42455;51.660;5.824;2023-03-01T05:16:58;10.0;;;9.0;;
45382;SDS011;42455;51.660;5.824;2023-03-01T05:22:04;10.0;;;9.0;;
45382;SDS011;42455;51.660;5.824;2023-03-01T05:27:11;10.0;;;9.0;;
45382;SDS011;42455;51.660;5.824;2023-03-01T05:32:17;10.0;;;9.0;;
45382;SDS011;42455;51.660;5.824;2023-03-01T05:37:23;11.0;;;8.0;;
45382;SDS011;42455;51.660;5.824;2023-03-01T05:42:28;10.0;;;9.0;;
45382;SDS011;42455;51.660;5.824;2023-03-01T05:47:34;10.0;;;8.0;;
45382;SDS011;42455;51.660;5.824;2023-03-01T05:52:41;10.0;;;9.0;;
45382;SDS011;42455;51.660;5.824;2023-03-01T05:57:47;11.0;;;9.0;;
45382;SDS011;42455;51.660;5.824;2023-03-01T06:02:53;11.0;;;9.0;;
45382;SDS011;42455;51.660;5.824;2023-03-01T06:07:59;10.0;;;9.0;;
45382;SDS011;42455;51.660;5.824;2023-03-01T06:13:06;10.0;;;9.0;;
45382;SDS011;42455;51.660;5.824;2023-03-01T06:18:12;10.0;;;9.0;;
45382;SDS011;42455;51.660;5.824;2023-03-01T06:23:18;11.0;;;9.0;;
45382;SDS011;42455;51.660;5.824;2023-03-01T06:28:24;11.0;;;9.0;;
45382;SDS011;42455;51.660;5.824;2023-03-01T06:33:30;12.0;;;10.0;;
45382;SDS011;42455;51.660;5.824;2023-03-01T06:38:36;10.0;;;9.0;;
45382;SDS011;42455;51.660;5.824;2023-03-01T06:43:43;11.5;;;10.0;;
45382;SDS011;42455;51.660;5.824;2023-03-01T06:48:49;11.0;;;10.0;;
45382;SDS011;42455;51.660;5.824;2023-03-01T06:53:55;11.0;;;10.0;;
45382;SDS011;42455;51.660;5.824;2023-03-01T06:59:02;10.0;;;9.0;;
45382;SDS011;42455;51.660;5.824;2023-03-01T07:04:07;11.0;;;10.0;;
45382;SDS011;42455;51.660;5.824;2023-03-01T07:09:14;11.0;;;10.0;;
45382;SDS011;42455;51.660;5.824;2023-03-01T07:14:20;11.0;;;9.0;;
45382;SDS011;42455;51.660;5.824;2023-03-01T07:19:26;12.0;;;10.0;;
45382;SDS011;42455;51.660;5.824;2023-03-01T07:24:32;10.0;;;9.0;;
45382;SDS011;42455;51.660;5.824;2023-03-01T07:29:38;11.0;;;9.0;;
45382;SDS011;42455;51.660;5.824;2023-03-01T07:34:44;13.0;;;11.0;;
45382;SDS011;42455;51.660;5.824;2023-03-01T07:39:49;12.5;;;10.0;;
45382;SDS011;42455;51.660;5.824;2023-03-01T07:44:55;10.0;;;9.0;;
45382;SDS011;42455;51.660;5.824;2023-03-01T07:50:01;10.0;;;9.0;;
45382;SDS011;42455;51.660;5.824;2023-03-01T07:55:08;10.0;;;9.0;;
45382;SDS011;42455;51.660;5.824;2023-03-01T08:00:14;10.0;;;9.0;;
45382;SDS011;42455;51.660;5.824;2023-03-01T08:05:20;11.0;;;9.5;;
45382;SDS011;42455;51.660;5.824;2023-03-01T08:10:26;11.0;;;9.0;;
45382;SDS011;42455;51.660;5.824;2023-03-01T08:15:32;11.0;;;10.0;;
45382;SDS011;42455;51.660;5.824;2023-03-01T08:20:39;10.0;;;9.0;;
45382;SDS011;42455;51.660;5.824;2023-03-01T08:25:45;10.0;;;9.0;;
45382;SDS011;42455;51.660;5.824;2023-03-01T08:30:51;10.0;;;9.0;;
45382;SDS011;42455;51.660;5.824;2023-03-01T08:36:01;10.0;;;9.0;;
45382;SDS011;42455;51.660;5.824;2023-03-01T08:41:04;9.0;;;8.0;;
45382;SDS011;42455;51.660;5.824;2023-03-01T08:46:10;9.0;;;8.0;;
45382;SDS011;42455;51.660;5.824;2023-03-01T08:51:20;8.0;;;7.0;;
45382;SDS011;42455;51.660;5.824;2023-03-01T08:56:22;10.0;;;8.0;;
45382;SDS011;42455;51.660;5.824;2023-03-01T09:01:28;8.0;;;8.0;;
45382;SDS011;42455;51.660;5.824;2023-03-01T09:06:35;8.0;;;7.0;;
45382;SDS011;42455;51.660;5.824;2023-03-01T09:11:41;7.0;;;7.0;;
45382;SDS011;42455;51.660;5.824;2023-03-01T09:16:47;7.0;;;6.0;;
45382;SDS011;42455;51.660;5.824;2023-03-01T09:21:53;8.5;;;7.0;;
45382;SDS011;42455;51.660;5.824;2023-03-01T09:26:58;8.0;;;7.0;;
45382;SDS011;42455;51.660;5.824;2023-03-01T09:32:05;8.0;;;6.0;;
45382;SDS011;42455;51.660;5.824;2023-03-01T09:37:10;7.0;;;6.0;;
45382;SDS011;42455;51.660;5.824;2023-03-01T09:42:16;7.0;;;6.0;;
45382;SDS011;42455;51.660;5.824;2023-03-01T09:47:24;7.0;;;6.0;;
45382;SDS011;42455;51.660;5.824;2023-03-01T09:52:34;7.0;;;6.0;;
45382;SDS011;42455;51.660;5.824;2023-03-01T09:57:47;7.0;;;6.0;;
45382;SDS011;42455;51.660;5.824;2023-03-01T10:02:42;8.0;;;6.0;;
45382;SDS011;42455;51.660;5.824;2023-03-01T10:08:23;8.0;;;7.0;;
45382;SDS011;42455;51.660;5.824;2023-03-01T10:12:52;7.0;;;7.0;;
45382;SDS011;42455;51.660;5.824;2023-03-01T10:18:16;7.0;;;6.0;;
45382;SDS011;42455;51.660;5.824;2023-03-01T10:23:04;8.0;;;6.5;;
45382;SDS011;42455;51.660;5.824;2023-03-01T10:28:29;7.0;;;6.0;;
45382;SDS011;42455;51.660;5.824;2023-03-01T10:33:30;7.0;;;6.0;;
45382;SDS011;42455;51.660;5.824;2023-03-01T10:38:22;7.0;;;6.0;;
45382;SDS011;42455;51.660;5.824;2023-03-01T10:43:46;7.0;;;6.0;;
45382;SDS011;42455;51.660;5.824;2023-03-01T10:48:35;7.0;;;6.0;;
45382;SDS011;42455;51.660;5.824;2023-03-01T10:53:42;7.0;;;6.0;;
45382;SDS011;42455;51.660;5.824;2023-03-01T10:58:58;7.0;;;6.0;;
45382;SDS011;42455;51.660;5.824;2023-03-01T11:04:14;6.0;;;6.0;;
45382;SDS011;42455;51.660;5.824;2023-03-01T11:09:01;6.0;;;6.0;;
45382;SDS011;42455;51.660;5.824;2023-03-01T11:14:06;7.0;;;6.0;;
45382;SDS011;42455;51.660;5.824;2023-03-01T11:19:18;7.0;;;6.0;;
45382;SDS011;42455;51.660;5.824;2023-03-01T11:24:18;7.0;;;6.0;;
45382;SDS011;42455;51.660;5.824;2023-03-01T11:29:35;7.0;;;6.0;;
45382;SDS011;42455;51.660;5.824;2023-03-01T11:34:43;7.0;;;6.0;;
45382;SDS011;42455;51.660;5.824;2023-03-01T11:39:47;6.0;;;6.0;;
45382;SDS011;42455;51.660;5.824;2023-03-01T11:44:46;7.0;;;6.0;;
45382;SDS011;42455;51.660;5.824;2023-03-01T11:50:49;7.0;;;6.0;;
45382;SDS011;42455;51.660;5.824;2023-03-01T11:56:01;7.0;;;6.0;;
45382;SDS011;42455;51.660;5.824;2023-03-01T12:01:40;7.0;;;6.0;;
45382;SDS011;42455;51.660;5.824;2023-03-01T12:07:20;7.0;;;6.0;;
45382;SDS011;42455;51.660;5.824;2023-03-01T12:12:50;7.0;;;6.0;;
45382;SDS011;42455;51.660;5.824;2023-03-01T12:19:15;7.0;;;6.0;;
45382;SDS011;42455;51.660;5.824;2023-03-01T12:25:16;7.0;;;6.0;;
45382;SDS011;42455;51.660;5.824;2023-03-01T12:30:54;6.0;;;6.0;;
45382;SDS011;42455;51.660;5.824;2023-03-01T12:36:10;7.0;;;6.0;;
45382;SDS011;42455;51.660;5.824;2023-03-01T12:42:02;6.0;;;5.0;;
45382;SDS011;42455;51.660;5.824;2023-03-01T12:47:58;6.0;;;6.0;;
45382;SDS011;42455;51.660;5.824;2023-03-01T12:51:39;7.0;;;6.0;;
45382;SDS011;42455;51.660;5.824;2023-03-01T12:52:59;6.0;;;6.0;;
45382;SDS011;42455;51.660;5.824;2023-03-01T12:56:10;7.0;;;6.0;;
45382;SDS011;42455;51.660;5.824;2023-03-01T13:01:35;7.0;;;6.0;;
45382;SDS011;42455;51.660;5.824;2023-03-01T13:06:56;7.0;;;6.0;;
45382;SDS011;42455;51.660;5.824;2023-03-01T13:11:28;7.0;;;6.0;;
45382;SDS011;42455;51.660;5.824;2023-03-01T13:16:42;7.0;;;7.0;;
45382;SDS011;42455;51.660;5.824;2023-03-01T13:21:39;7.0;;;6.0;;
45382;SDS011;42455;51.660;5.824;2023-03-01T13:27:09;7.0;;;6.0;;
45382;SDS011;42455;51.660;5.824;2023-03-01T13:32:00;6.0;;;6.0;;
45382;SDS011;42455;51.660;5.824;2023-03-01T13:37:08;7.0;;;6.0;;
45382;SDS011;42455;51.660;5.824;2023-03-01T13:42:03;7.0;;;6.0;;
45382;SDS011;42455;51.660;5.824;2023-03-01T13:47:17;7.0;;;6.0;;
45382;SDS011;42455;51.660;5.824;2023-03-01T13:52:37;7.0;;;6.0;;
45382;SDS011;42455;51.660;5.824;2023-03-01T13:57:26;7.0;;;6.0;;
45382;SDS011;42455;51.660;5.824;2023-03-01T14:02:28;7.0;;;6.0;;
45382;SDS011;42455;51.660;5.824;2023-03-01T14:07:34;7.0;;;6.0;;
45382;SDS011;42455;51.660;5.824;2023-03-01T14:13:12;7.0;;;6.0;;
45382;SDS011;42455;51.660;5.824;2023-03-01T14:17:59;8.0;;;7.0;;
45382;SDS011;42455;51.660;5.824;2023-03-01T14:22:53;7.0;;;6.0;;
45382;SDS011;42455;51.660;5.824;2023-03-01T14:28:00;7.0;;;7.0;;
45382;SDS011;42455;51.660;5.824;2023-03-01T14:33:06;8.0;;;7.0;;
45382;SDS011;42455;51.660;5.824;2023-03-01T14:38:21;10.0;;;7.0;;
45382;SDS011;42455;51.660;5.824;2023-03-01T14:43:25;8.0;;;7.0;;
45382;SDS011;42455;51.660;5.824;2023-03-01T14:48:24;8.0;;;7.0;;
45382;SDS011;42455;51.660;5.824;2023-03-01T14:53:30;8.0;;;7.0;;
45382;SDS011;42455;51.660;5.824;2023-03-01T14:58:36;8.0;;;7.0;;
45382;SDS011;42455;51.660;5.824;2023-03-01T15:03:43;9.0;;;8.0;;
45382;SDS011;42455;51.660;5.824;2023-03-01T15:08:54;8.0;;;7.0;;
45382;SDS011;42455;51.660;5.824;2023-03-01T15:13:55;8.0;;;7.0;;
45382;SDS011;42455;51.660;5.824;2023-03-01T15:19:00;9.0;;;8.0;;
45382;SDS011;42455;51.660;5.824;2023-03-01T15:24:07;9.0;;;8.0;;
45382;SDS011;42455;51.660;5.824;2023-03-01T15:29:19;9.0;;;8.0;;
45382;SDS011;42455;51.660;5.824;2023-03-01T15:34:22;8.0;;;7.0;;
45382;SDS011;42455;51.660;5.824;2023-03-01T15:39:35;8.0;;;7.0;;
45382;SDS011;42455;51.660;5.824;2023-03-01T15:44:31;8.0;;;7.0;;
45382;SDS011;42455;51.660;5.824;2023-03-01T15:49:43;8.0;;;7.0;;
45382;SDS011;42455;51.660;5.824;2023-03-01T15:54:43;8.0;;;7.0;;
45382;SDS011;42455;51.660;5.824;2023-03-01T15:59:49;8.0;;;7.0;;
45382;SDS011;42455;51.660;5.824;2023-03-01T16:04:55;7.0;;;7.0;;
45382;SDS011;42455;51.660;5.824;2023-03-01T16:10:01;8.0;;;7.0;;
45382;SDS011;42455;51.660;5.824;2023-03-01T16:15:07;8.0;;;7.0;;
45382;SDS011;42455;51.660;5.824;2023-03-01T16:20:13;8.0;;;7.0;;
45382;SDS011;42455;51.660;5.824;2023-03-01T16:25:20;8.0;;;7.0;;
45382;SDS011;42455;51.660;5.824;2023-03-01T16:30:26;7.0;;;6.0;;
45382;SDS011;42455;51.660;5.824;2023-03-01T16:35:32;7.0;;;6.0;;
45382;SDS011;42455;51.660;5.824;2023-03-01T16:40:38;7.0;;;6.0;;
45382;SDS011;42455;51.660;5.824;2023-03-01T16:45:44;6.0;;;6.0;;
45382;SDS011;42455;51.660;5.824;2023-03-01T16:50:58;7.0;;;6.0;;
45382;SDS011;42455;51.660;5.824;2023-03-01T16:55:57;6.0;;;6.0;;
45382;SDS011;42455;51.660;5.824;2023-03-01T17:01:05;7.0;;;6.0;;
45382;SDS011;42455;51.660;5.824;2023-03-01T17:06:10;7.0;;;6.0;;
45382;SDS011;42455;51.660;5.824;2023-03-01T17:11:16;7.0;;;6.0;;
45382;SDS011;42455;51.660;5.824;2023-03-01T17:16:21;7.0;;;6.0;;
45382;SDS011;42455;51.660;5.824;2023-03-01T17:21:27;7.0;;;6.0;;
45382;SDS011;42455;51.660;5.824;2023-03-01T17:26:33;7.0;;;6.0;;
45382;SDS011;42455;51.660;5.824;2023-03-01T17:31:39;6.0;;;6.0;;
45382;SDS011;42455;51.660;5.824;2023-03-01T17:36:46;7.0;;;6.0;;
45382;SDS011;42455;51.660;5.824;2023-03-01T17:41:52;7.0;;;6.0;;
45382;SDS011;42455;51.660;5.824;2023-03-01T17:46:58;7.0;;;6.0;;
45382;SDS011;42455;51.660;5.824;2023-03-01T17:52:04;7.0;;;6.0;;
45382;SDS011;42455;51.660;5.824;2023-03-01T17:57:10;6.0;;;5.0;;
45382;SDS011;42455;51.660;5.824;2023-03-01T18:02:17;8.0;;;6.0;;
45382;SDS011;42455;51.660;5.824;2023-03-01T18:07:24;8.0;;;6.0;;
45382;SDS011;42455;51.660;5.824;2023-03-01T18:12:29;7.0;;;6.0;;
45382;SDS011;42455;51.660;5.824;2023-03-01T18:17:35;7.0;;;6.0;;
45382;SDS011;42455;51.660;5.824;2023-03-01T18:22:42;6.0;;;5.0;;
45382;SDS011;42455;51.660;5.824;2023-03-01T18:27:48;8.0;;;5.0;;
45382;SDS011;42455;51.660;5.824;2023-03-01T18:32:54;6.0;;;5.0;;
45382;SDS011;42455;51.660;5.824;2023-03-01T18:38:00;7.0;;;5.0;;
45382;SDS011;42455;51.660;5.824;2023-03-01T18:43:06;7.0;;;5.0;;
45382;SDS011;42455;51.660;5.824;2023-03-01T18:48:13;6.0;;;5.0;;
45382;SDS011;42455;51.660;5.824;2023-03-01T18:53:19;6.0;;;5.0;;
45382;SDS011;42455;51.660;5.824;2023-03-01T18:58:25;6.0;;;5.0;;
45382;SDS011;42455;51.660;5.824;2023-03-01T19:03:30;7.0;;;5.0;;
45382;SDS011;42455;51.660;5.824;2023-03-01T19:08:36;6.0;;;5.0;;
45382;SDS011;42455;51.660;5.824;2023-03-01T19:13:42;6.0;;;5.0;;
45382;SDS011;42455;51.660;5.824;2023-03-01T19:18:48;6.0;;;5.0;;
45382;SDS011;42455;51.660;5.824;2023-03-01T19:29:00;6.0;;;5.0;;
45382;SDS011;42455;51.660;5.824;2023-03-01T19:34:06;6.0;;;5.5;;
45382;SDS011;42455;51.660;5.824;2023-03-01T19:39:13;7.5;;;6.0;;
45382;SDS011;42455;51.660;5.824;2023-03-01T19:44:19;6.0;;;5.0;;
45382;SDS011;42455;51.660;5.824;2023-03-01T19:49:25;6.5;;;5.0;;
45382;SDS011;42455;51.660;5.824;2023-03-01T19:54:31;7.5;;;6.0;;
45382;SDS011;42455;51.660;5.824;2023-03-01T19:59:37;6.0;;;5.0;;
45382;SDS011;42455;51.660;5.824;2023-03-01T20:04:44;7.0;;;5.0;;
45382;SDS011;42455;51.660;5.824;2023-03-01T20:09:50;6.0;;;5.0;;
45382;SDS011;42455;51.660;5.824;2023-03-01T20:14:56;6.0;;;5.0;;
45382;SDS011;42455;51.660;5.824;2023-03-01T20:20:02;7.0;;;5.0;;
45382;SDS011;42455;51.660;5.824;2023-03-01T20:25:09;5.0;;;5.0;;
45382;SDS011;42455;51.660;5.824;2023-03-01T20:30:15;6.0;;;5.0;;
45382;SDS011;42455;51.660;5.824;2023-03-01T20:35:21;7.0;;;5.0;;
45382;SDS011;42455;51.660;5.824;2023-03-01T20:40:27;6.0;;;5.0;;
45382;SDS011;42455;51.660;5.824;2023-03-01T20:45:33;9.0;;;5.0;;
45382;SDS011;42455;51.660;5.824;2023-03-01T20:50:39;5.0;;;5.0;;
45382;SDS011;42455;51.660;5.824;2023-03-01T20:55:46;6.0;;;5.0;;
45382;SDS011;42455;51.660;5.824;2023-03-01T21:00:52;6.0;;;5.0;;
45382;SDS011;42455;51.660;5.824;2023-03-01T21:05:58;5.0;;;5.0;;
45382;SDS011;42455;51.660;5.824;2023-03-01T21:11:04;5.5;;;5.0;;
45382;SDS011;42455;51.660;5.824;2023-03-01T21:16:09;6.0;;;5.0;;
45382;SDS011;42455;51.660;5.824;2023-03-01T21:21:20;6.0;;;5.0;;
45382;SDS011;42455;51.660;5.824;2023-03-01T21:26:21;6.0;;;5.0;;
45382;SDS011;42455;51.660;5.824;2023-03-01T21:31:29;6.0;;;5.0;;
45382;SDS011;42455;51.660;5.824;2023-03-01T21:36:34;6.0;;;5.0;;
45382;SDS011;42455;51.660;5.824;2023-03-01T21:41:39;7.0;;;5.0;;
45382;SDS011;42455;51.660;5.824;2023-03-01T21:46:47;6.0;;;5.0;;
45382;SDS011;42455;51.660;5.824;2023-03-01T21:51:51;6.0;;;5.0;;
45382;SDS011;42455;51.660;5.824;2023-03-01T21:56:57;5.0;;;5.0;;
45382;SDS011;42455;51.660;5.824;2023-03-01T22:02:03;6.0;;;5.0;;
45382;SDS011;42455;51.660;5.824;2023-03-01T22:07:10;6.0;;;5.0;;
45382;SDS011;42455;51.660;5.824;2023-03-01T22:12:16;7.0;;;5.0;;
45382;SDS011;42455;51.660;5.824;2023-03-01T22:17:22;7.0;;;6.0;;
45382;SDS011;42455;51.660;5.824;2023-03-01T22:22:28;6.0;;;5.0;;
45382;SDS011;42455;51.660;5.824;2023-03-01T22:27:35;6.0;;;5.0;;
45382;SDS011;42455;51.660;5.824;2023-03-01T22:32:41;6.0;;;5.0;;
45382;SDS011;42455;51.660;5.824;2023-03-01T22:37:47;6.0;;;5.0;;
45382;SDS011;42455;51.660;5.824;2023-03-01T22:42:53;6.0;;;5.0;;
45382;SDS011;42455;51.660;5.824;2023-03-01T22:47:59;8.0;;;5.0;;
45382;SDS011;42455;51.660;5.824;2023-03-01T22:53:06;7.0;;;6.0;;
45382;SDS011;42455;51.660;5.824;2023-03-01T22:58:12;8.0;;;6.0;;
45382;SDS011;42455;51.660;5.824;2023-03-01T23:03:18;6.0;;;5.0;;
45382;SDS011;42455;51.660;5.824;2023-03-01T23:08:24;7.0;;;5.0;;
45382;SDS011;42455;51.660;5.824;2023-03-01T23:13:29;7.0;;;6.0;;
45382;SDS011;42455;51.660;5.824;2023-03-01T23:18:36;6.0;;;6.0;;
45382;SDS011;42455;51.660;5.824;2023-03-01T23:23:42;7.0;;;6.0;;
45382;SDS011;42455;51.660;5.824;2023-03-01T23:28:48;8.0;;;6.0;;
45382;SDS011;42455;51.660;5.824;2023-03-01T23:33:53;8.0;;;6.0;;
45382;SDS011;42455;51.660;5.824;2023-03-01T23:39:00;7.0;;;5.0;;
45382;SDS011;42455;51.660;5.824;2023-03-01T23:44:06;8.0;;;6.0;;
45382;SDS011;42455;51.660;5.824;2023-03-01T23:49:14;7.0;;;6.0;;
45382;SDS011;42455;51.660;5.824;2023-03-01T23:54:19;6.0;;;5.0;;
45382;SDS011;42455;51.660;5.824;2023-03-01T23:59:24;7.0;;;6.0;;
